createdAt,value
2018-12-09T00:00:23.993Z,98413.38
2018-12-09T00:00:58.589Z,98405.64
2018-12-09T00:01:33.237Z,98397.57
2018-12-09T00:02:07.875Z,98404.63
2018-12-09T00:02:42.441Z,98406.59
2018-12-09T00:03:16.993Z,98412.28
2018-12-09T00:03:51.583Z,98416.30
2018-12-09T00:04:26.153Z,98423.58
2018-12-09T00:05:01.076Z,98433.96
2018-12-09T00:05:36.434Z,98390.52
2018-12-09T00:06:11.462Z,98424.48
2018-12-09T00:06:46.957Z,98427.52
2018-12-09T00:07:21.516Z,98431.59
2018-12-09T00:07:56.090Z,98454.97
2018-12-09T00:08:30.722Z,98443.83
2018-12-09T00:09:06.840Z,98416.24
2018-12-09T00:09:41.431Z,98424.25
2018-12-09T00:10:16.017Z,98418.80
2018-12-09T00:10:50.674Z,98404.25
2018-12-09T00:11:25.330Z,98417.67
2018-12-09T00:11:59.920Z,98425.59
2018-12-09T00:12:34.561Z,98482.67
2018-12-09T00:13:09.228Z,98428.94
2018-12-09T00:13:43.827Z,98450.27
2018-12-09T00:14:18.392Z,98427.66
2018-12-09T00:14:53.037Z,98413.81
2018-12-09T00:15:27.624Z,98421.80
2018-12-09T00:16:02.373Z,98418.02
2018-12-09T00:16:36.998Z,98421.03
2018-12-09T00:17:12.101Z,98426.09
2018-12-09T00:17:46.713Z,98413.81
2018-12-09T00:18:21.311Z,98429.53
2018-12-09T00:18:55.991Z,98441.20
2018-12-09T00:19:30.611Z,98409.92
2018-12-09T00:20:06.048Z,98439.69
2018-12-09T00:20:40.617Z,98393.04
2018-12-09T00:21:15.302Z,98381.00
2018-12-09T00:21:49.877Z,98407.81
2018-12-09T00:22:24.908Z,98369.57
2018-12-09T00:22:59.479Z,98376.92
2018-12-09T00:23:34.126Z,98366.14
2018-12-09T00:24:09.160Z,98362.84
2018-12-09T00:24:43.754Z,98363.37
2018-12-09T00:25:18.694Z,98370.19
2018-12-09T00:25:53.279Z,98343.70
2018-12-09T00:26:28.292Z,98342.86
2018-12-09T00:27:02.988Z,98331.95
2018-12-09T00:27:37.704Z,98338.70
2018-12-09T00:28:12.287Z,98331.55
2018-12-09T00:28:46.855Z,98331.63
2018-12-09T00:29:21.447Z,98336.48
2018-12-09T00:29:56.009Z,98323.42
2018-12-09T00:30:30.795Z,98319.27
2018-12-09T00:31:05.455Z,98319.72
2018-12-09T00:31:40.061Z,98337.23
2018-12-09T00:32:14.684Z,98342.53
2018-12-09T00:32:49.304Z,98330.91
2018-12-09T00:33:24.073Z,98351.42
2018-12-09T00:33:59.125Z,98361.87
2018-12-09T00:34:33.770Z,98349.52
2018-12-09T00:35:08.485Z,98359.14
2018-12-09T00:35:43.072Z,98363.91
2018-12-09T00:36:17.741Z,98366.11
2018-12-09T00:36:52.298Z,98358.31
2018-12-09T00:37:26.907Z,98360.20
2018-12-09T00:38:01.870Z,98358.58
2018-12-09T00:38:36.731Z,98368.12
2018-12-09T00:39:11.365Z,98364.25
2018-12-09T00:39:46.259Z,98360.20
2018-12-09T00:40:20.849Z,98361.30
2018-12-09T00:40:55.453Z,98369.90
2018-12-09T00:41:30.226Z,98355.48
2018-12-09T00:42:04.980Z,98366.04
2018-12-09T00:42:43.371Z,98349.99
2018-12-09T00:43:16.261Z,98359.53
2018-12-09T00:43:50.840Z,98352.80
2018-12-09T00:44:25.453Z,98353.17
2018-12-09T00:45:00.204Z,98335.23
2018-12-09T00:45:34.873Z,98335.66
2018-12-09T00:46:09.563Z,98350.27
2018-12-09T00:46:44.157Z,98342.28
2018-12-09T00:47:18.760Z,98345.50
2018-12-09T00:47:53.422Z,98335.66
2018-12-09T00:48:27.966Z,98339.14
2018-12-09T00:49:02.658Z,98347.99
2018-12-09T00:49:37.301Z,98347.27
2018-12-09T00:50:11.895Z,98348.11
2018-12-09T00:50:47.090Z,98349.39
2018-12-09T00:51:21.725Z,98349.84
2018-12-09T00:51:56.274Z,98345.19
2018-12-09T00:52:30.915Z,98353.47
2018-12-09T00:53:06.208Z,98353.63
2018-12-09T00:53:40.791Z,98353.81
2018-12-09T00:54:15.373Z,98357.11
2018-12-09T00:54:49.962Z,98358.89
2018-12-09T00:55:24.616Z,98361.84
2018-12-09T00:55:59.659Z,98360.39
2018-12-09T00:56:34.332Z,98350.71
2018-12-09T00:57:09.167Z,98360.55
2018-12-09T00:57:43.760Z,98353.39
2018-12-09T00:58:18.427Z,98366.72
2018-12-09T00:58:53.082Z,98369.94
2018-12-09T00:59:27.693Z,98371.44
2018-12-09T01:00:02.389Z,98363.98
2018-12-09T01:00:37.006Z,98362.44
2018-12-09T01:01:12.038Z,98355.20
2018-12-09T01:01:46.961Z,98360.19
2018-12-09T01:02:21.529Z,98368.59
2018-12-09T01:02:56.501Z,98367.11
2018-12-09T01:03:31.371Z,98381.34
2018-12-09T01:04:06.069Z,98369.69
2018-12-09T01:04:40.754Z,98371.99
2018-12-09T01:05:15.352Z,98392.34
2018-12-09T01:05:50.054Z,98357.39
2018-12-09T01:06:24.748Z,98374.69
2018-12-09T01:06:59.309Z,98366.88
2018-12-09T01:07:34.476Z,98362.56
2018-12-09T01:08:09.215Z,98359.61
2018-12-09T01:08:44.269Z,98359.71
2018-12-09T01:09:18.912Z,98374.39
2018-12-09T01:09:53.582Z,98368.56
2018-12-09T01:10:28.167Z,98387.53
2018-12-09T01:11:02.829Z,98373.00
2018-12-09T01:11:37.532Z,98371.83
2018-12-09T01:12:12.125Z,98357.00
2018-12-09T01:12:46.694Z,98362.15
2018-12-09T01:13:21.305Z,98372.66
2018-12-09T01:13:55.949Z,98371.92
2018-12-09T01:14:31.024Z,98364.73
2018-12-09T01:15:06.818Z,98356.84
2018-12-09T01:15:41.836Z,98380.78
2018-12-09T01:16:17.317Z,98374.59
2018-12-09T01:16:51.888Z,98374.59
2018-12-09T01:17:26.474Z,98392.37
2018-12-09T01:18:01.234Z,98383.61
2018-12-09T01:18:36.019Z,98372.39
2018-12-09T01:19:11.339Z,98367.31
2018-12-09T01:19:45.924Z,98375.63
2018-12-09T01:20:20.940Z,98365.33
2018-12-09T01:20:55.970Z,98373.88
2018-12-09T01:21:30.649Z,98382.00
2018-12-09T01:22:05.240Z,98384.00
2018-12-09T01:22:39.829Z,98365.25
2018-12-09T01:23:14.873Z,98378.85
2018-12-09T01:23:49.425Z,98365.79
2018-12-09T01:24:24.401Z,98364.22
2018-12-09T01:24:59.041Z,98366.62
2018-12-09T01:25:33.708Z,98361.17
2018-12-09T01:26:08.536Z,98377.55
2018-12-09T01:26:43.690Z,98370.02
2018-12-09T01:27:20.737Z,98356.84
2018-12-09T01:27:55.892Z,98369.07
2018-12-09T01:28:30.510Z,98357.13
2018-12-09T01:29:05.122Z,98359.34
2018-12-09T01:29:39.858Z,98370.11
2018-12-09T01:30:14.901Z,98362.92
2018-12-09T01:30:49.487Z,98353.80
2018-12-09T01:31:24.113Z,98348.38
2018-12-09T01:31:58.708Z,98360.88
2018-12-09T01:32:33.666Z,98349.02
2018-12-09T01:33:08.629Z,98368.81
2018-12-09T01:33:43.244Z,98356.38
2018-12-09T01:34:17.873Z,98353.27
2018-12-09T01:34:52.548Z,98350.41
2018-12-09T01:35:27.777Z,98343.96
2018-12-09T01:36:02.580Z,98365.95
2018-12-09T01:36:37.528Z,98361.09
2018-12-09T01:37:12.110Z,98365.13
2018-12-09T01:37:46.660Z,98348.95
2018-12-09T01:38:21.252Z,98345.42
2018-12-09T01:38:56.778Z,98336.52
2018-12-09T01:39:31.494Z,98349.95
2018-12-09T01:40:07.598Z,98355.19
2018-12-09T01:40:47.479Z,98350.57
2018-12-09T01:41:22.166Z,98338.89
2018-12-09T01:41:57.463Z,98338.06
2018-12-09T01:42:32.239Z,98336.06
2018-12-09T01:43:06.980Z,98341.22
2018-12-09T01:43:42.057Z,98343.05
2018-12-09T01:44:16.650Z,98342.05
2018-12-09T01:44:51.780Z,98350.70
2018-12-09T01:45:26.738Z,98341.30
2018-12-09T01:46:01.347Z,98331.99
2018-12-09T01:46:36.009Z,98315.98
2018-12-09T01:47:10.664Z,98336.06
2018-12-09T01:47:45.320Z,98346.55
2018-12-09T01:48:19.939Z,98340.93
2018-12-09T01:48:54.989Z,98335.31
2018-12-09T01:49:30.144Z,98324.91
2018-12-09T01:50:06.272Z,98330.61
2018-12-09T01:50:41.181Z,98326.58
2018-12-09T01:51:16.221Z,98337.72
2018-12-09T01:51:51.336Z,98327.12
2018-12-09T01:52:26.890Z,98322.70
2018-12-09T01:53:12.554Z,98335.97
2018-12-09T01:54:18.629Z,98331.07
2018-12-09T01:54:53.223Z,98316.72
2018-12-09T01:55:28.013Z,98318.02
2018-12-09T01:56:02.696Z,98325.55
2018-12-09T01:56:37.640Z,98321.42
2018-12-09T01:57:12.279Z,98314.06
2018-12-09T01:57:46.890Z,98330.33
2018-12-09T01:58:22.640Z,98312.28
2018-12-09T01:58:57.347Z,98326.75
2018-12-09T01:59:31.949Z,98314.89
2018-12-09T02:00:07.612Z,98307.33
2018-12-09T02:00:42.842Z,98317.27
2018-12-09T02:01:17.901Z,98312.10
2018-12-09T02:01:53.513Z,98315.88
2018-12-09T02:02:28.125Z,98321.50
2018-12-09T02:03:02.937Z,98309.27
2018-12-09T02:03:37.636Z,98311.64
2018-12-09T02:04:19.201Z,98317.25
2018-12-09T02:04:53.776Z,98313.21
2018-12-09T02:05:28.377Z,98307.38
2018-12-09T02:06:03.130Z,98322.23
2018-12-09T02:06:37.792Z,98320.85
2018-12-09T02:07:12.717Z,98322.15
2018-12-09T02:07:47.299Z,98322.86
2018-12-09T02:08:21.936Z,98327.39
2018-12-09T02:08:56.539Z,98334.38
2018-12-09T02:09:31.476Z,98320.19
2018-12-09T02:10:07.008Z,98317.05
2018-12-09T02:10:41.628Z,98324.27
2018-12-09T02:11:16.270Z,98330.05
2018-12-09T02:11:51.883Z,98351.42
2018-12-09T02:12:26.993Z,98326.91
2018-12-09T02:13:01.633Z,98314.11
2018-12-09T02:13:36.323Z,98327.92
2018-12-09T02:14:11.240Z,98318.64
2018-12-09T02:14:46.058Z,98364.24
2018-12-09T02:15:20.642Z,98312.45
2018-12-09T02:15:55.241Z,98318.06
2018-12-09T02:16:29.868Z,98320.47
2018-12-09T02:17:05.730Z,98333.20
2018-12-09T02:17:40.792Z,98324.05
2018-12-09T02:18:15.402Z,98317.61
2018-12-09T02:19:28.589Z,98318.06
2018-12-09T02:20:03.396Z,98324.88
2018-12-09T02:20:38.115Z,98319.35
2018-12-09T02:21:12.913Z,98334.58
2018-12-09T02:21:48.509Z,98336.41
2018-12-09T02:22:23.097Z,98320.19
2018-12-09T02:22:57.693Z,98323.81
2018-12-09T02:23:32.865Z,98323.32
2018-12-09T02:24:07.682Z,98315.58
2018-12-09T02:24:42.861Z,98327.77
2018-12-09T02:25:17.469Z,98317.53
2018-12-09T02:25:52.077Z,98319.57
2018-12-09T02:26:26.690Z,98319.38
2018-12-09T02:27:01.369Z,98315.34
2018-12-09T02:27:36.221Z,98329.61
2018-12-09T02:28:10.956Z,98332.19
2018-12-09T02:28:45.566Z,98315.50
2018-12-09T02:29:20.249Z,98324.44
2018-12-09T02:29:54.859Z,98315.70
2018-12-09T02:30:29.917Z,98310.09
2018-12-09T02:31:05.099Z,98317.01
2018-12-09T02:31:39.775Z,98320.05
2018-12-09T02:32:14.496Z,98323.71
2018-12-09T02:32:49.174Z,98337.06
2018-12-09T02:33:23.822Z,98325.38
2018-12-09T02:33:58.729Z,98312.11
2018-12-09T02:34:33.645Z,98322.25
2018-12-09T02:35:08.657Z,98333.20
2018-12-09T02:35:47.191Z,98321.13
2018-12-09T02:36:22.027Z,98345.55
2018-12-09T02:36:57.126Z,98334.48
2018-12-09T02:37:31.795Z,98331.08
2018-12-09T02:38:06.492Z,98328.04
2018-12-09T02:38:41.273Z,98327.41
2018-12-09T02:39:15.841Z,98351.25
2018-12-09T02:39:51.227Z,98326.46
2018-12-09T02:40:26.273Z,98336.23
2018-12-09T02:41:01.196Z,98344.80
2018-12-09T02:41:36.386Z,98343.51
2018-12-09T02:42:11.450Z,98335.06
2018-12-09T02:42:46.145Z,98333.85
2018-12-09T02:43:20.892Z,98339.27
2018-12-09T02:43:56.446Z,98341.04
2018-12-09T02:44:31.046Z,98345.08
2018-12-09T02:45:06.435Z,98332.65
2018-12-09T02:45:41.073Z,98352.36
2018-12-09T02:46:15.642Z,98327.78
2018-12-09T02:46:50.286Z,98346.08
2018-12-09T02:47:24.923Z,98348.95
2018-12-09T02:47:59.508Z,98340.09
2018-12-09T02:48:34.236Z,98353.36
2018-12-09T02:49:09.398Z,98346.20
2018-12-09T02:49:43.960Z,98348.95
2018-12-09T02:50:19.086Z,98352.73
2018-12-09T02:50:53.712Z,98353.81
2018-12-09T02:51:28.715Z,98355.69
2018-12-09T02:52:04.184Z,98355.31
2018-12-09T02:52:39.209Z,98368.83
2018-12-09T02:53:15.080Z,98356.59
2018-12-09T02:53:50.470Z,98365.71
2018-12-09T02:54:25.084Z,98363.50
2018-12-09T02:54:59.737Z,98366.91
2018-12-09T02:55:34.317Z,98369.50
2018-12-09T02:56:09.399Z,98387.09
2018-12-09T02:56:44.315Z,98394.08
2018-12-09T02:57:18.998Z,98387.91
2018-12-09T02:57:54.393Z,98390.95
2018-12-09T02:58:29.276Z,98401.80
2018-12-09T02:59:04.552Z,98407.59
2018-12-09T02:59:39.793Z,98392.93
2018-12-09T03:00:15.338Z,98392.53
2018-12-09T03:00:50.412Z,98398.56
2018-12-09T03:01:26.135Z,98385.27
2018-12-09T03:02:00.864Z,98381.13
2018-12-09T03:02:35.478Z,98392.53
2018-12-09T03:03:10.469Z,98393.42
2018-12-09T03:03:45.530Z,98401.64
2018-12-09T03:04:20.093Z,98401.53
2018-12-09T03:04:56.111Z,98408.83
2018-12-09T03:05:30.802Z,98416.17
2018-12-09T03:06:05.865Z,98411.48
2018-12-09T03:06:40.447Z,98398.42
2018-12-09T03:07:15.342Z,98399.95
2018-12-09T03:07:49.925Z,98415.23
2018-12-09T03:08:24.943Z,98401.61
2018-12-09T03:08:59.718Z,98398.42
2018-12-09T03:09:34.369Z,98402.93
2018-12-09T03:10:09.177Z,98378.55
2018-12-09T03:10:44.009Z,98404.06
2018-12-09T03:11:18.640Z,98390.52
2018-12-09T03:11:53.517Z,98381.78
2018-12-09T03:12:28.254Z,98382.05
2018-12-09T03:13:02.940Z,98385.19
2018-12-09T03:13:37.495Z,98403.21
2018-12-09T03:14:12.094Z,98396.20
2018-12-09T03:14:47.236Z,98394.66
2018-12-09T03:15:22.266Z,98389.77
2018-12-09T03:15:57.262Z,98381.11
2018-12-09T03:16:32.047Z,98396.53
2018-12-09T03:17:06.809Z,98390.55
2018-12-09T03:17:41.555Z,98392.02
2018-12-09T03:18:16.517Z,98401.64
2018-12-09T03:18:51.076Z,98381.93
2018-12-09T03:19:25.775Z,98401.77
2018-12-09T03:20:00.376Z,98415.39
2018-12-09T03:20:34.981Z,98387.16
2018-12-09T03:21:09.556Z,98406.08
2018-12-09T03:21:44.125Z,98384.63
2018-12-09T03:22:18.716Z,98387.88
2018-12-09T03:22:53.295Z,98382.50
2018-12-09T03:23:27.954Z,98382.31
2018-12-09T03:24:02.973Z,98386.92
2018-12-09T03:24:37.553Z,98381.94
2018-12-09T03:25:12.138Z,98392.48
2018-12-09T03:25:46.763Z,98381.97
2018-12-09T03:26:21.370Z,98375.16
2018-12-09T03:26:56.559Z,98395.92
2018-12-09T03:27:31.232Z,98391.16
2018-12-09T03:28:06.307Z,98379.13
2018-12-09T03:28:40.960Z,98386.92
2018-12-09T03:29:16.006Z,98392.67
2018-12-09T03:29:50.617Z,98397.22
2018-12-09T03:30:25.925Z,98400.31
2018-12-09T03:31:01.009Z,98399.18
2018-12-09T03:31:35.630Z,98394.41
2018-12-09T03:32:10.198Z,98399.33
2018-12-09T03:32:45.049Z,98405.69
2018-12-09T03:33:19.873Z,98400.89
2018-12-09T03:33:54.593Z,98401.00
2018-12-09T03:34:29.256Z,98402.89
2018-12-09T03:35:04.737Z,98400.77
2018-12-09T03:35:39.319Z,98397.82
2018-12-09T03:36:14.178Z,98398.53
2018-12-09T03:36:48.774Z,98399.59
2018-12-09T03:37:23.493Z,98400.47
2018-12-09T03:37:58.253Z,98394.45
2018-12-09T03:38:33.008Z,98396.37
2018-12-09T03:39:07.921Z,98400.00
2018-12-09T03:39:42.484Z,98401.97
2018-12-09T03:40:17.486Z,98402.04
2018-12-09T03:40:52.090Z,98390.99
2018-12-09T03:41:26.758Z,98399.55
2018-12-09T03:42:01.392Z,98402.04
2018-12-09T03:42:36.004Z,98404.08
2018-12-09T03:43:10.590Z,98395.46
2018-12-09T03:43:45.174Z,98398.70
2018-12-09T03:44:19.738Z,98402.75
2018-12-09T03:44:55.044Z,98399.02
2018-12-09T03:45:29.979Z,98397.73
2018-12-09T03:46:05.444Z,98398.69
2018-12-09T03:46:40.025Z,98400.60
2018-12-09T03:47:15.045Z,98403.10
2018-12-09T03:47:49.635Z,98406.40
2018-12-09T03:48:24.231Z,98400.42
2018-12-09T03:48:59.030Z,98404.52
2018-12-09T03:49:33.650Z,98406.70
2018-12-09T03:50:09.436Z,98407.28
2018-12-09T03:50:44.002Z,98417.56
2018-12-09T03:51:18.694Z,98412.34
2018-12-09T03:51:53.682Z,98408.48
2018-12-09T03:52:28.745Z,98405.84
2018-12-09T03:53:03.577Z,98409.74
2018-12-09T03:53:38.306Z,98417.47
2018-12-09T03:54:12.948Z,98410.88
2018-12-09T03:54:47.603Z,98410.65
2018-12-09T03:55:22.171Z,98397.97
2018-12-09T03:55:57.582Z,98406.64
2018-12-09T03:56:32.146Z,98393.52
2018-12-09T03:57:07.242Z,98408.95
2018-12-09T03:57:41.925Z,98397.67
2018-12-09T03:58:16.504Z,98398.92
2018-12-09T03:58:51.452Z,98400.66
2018-12-09T03:59:26.040Z,98400.89
2018-12-09T04:00:00.606Z,98407.33
2018-12-09T04:00:35.993Z,98416.48
2018-12-09T04:01:10.619Z,98414.36
2018-12-09T04:01:45.705Z,98418.30
2018-12-09T04:02:20.287Z,98415.50
2018-12-09T04:02:55.232Z,98423.19
2018-12-09T04:03:29.801Z,98417.20
2018-12-09T04:04:05.622Z,98417.66
2018-12-09T04:04:40.237Z,98414.89
2018-12-09T04:05:15.332Z,98418.60
2018-12-09T04:05:50.466Z,98420.42
2018-12-09T04:06:25.115Z,98413.16
2018-12-09T04:06:59.672Z,98396.31
2018-12-09T04:07:34.485Z,98417.63
2018-12-09T04:08:09.567Z,98408.80
2018-12-09T04:08:44.160Z,98416.22
2018-12-09T04:09:18.769Z,98401.00
2018-12-09T04:09:53.606Z,98407.97
2018-12-09T04:10:28.251Z,98404.27
2018-12-09T04:11:02.920Z,98408.05
2018-12-09T04:11:37.820Z,98404.34
2018-12-09T04:12:12.514Z,98410.70
2018-12-09T04:12:47.114Z,98405.63
2018-12-09T04:13:21.698Z,98428.06
2018-12-09T04:13:56.655Z,98417.31
2018-12-09T04:14:31.266Z,98421.63
2018-12-09T04:15:07.576Z,98423.64
2018-12-09T04:15:43.285Z,98423.56
2018-12-09T04:16:18.325Z,98415.19
2018-12-09T04:16:52.879Z,98435.77
2018-12-09T04:17:27.753Z,98417.47
2018-12-09T04:18:02.348Z,98415.84
2018-12-09T04:18:37.442Z,98409.74
2018-12-09T04:19:12.332Z,98417.61
2018-12-09T04:19:46.895Z,98419.08
2018-12-09T04:20:21.486Z,98424.61
2018-12-09T04:20:56.051Z,98419.28
2018-12-09T04:21:30.654Z,98420.03
2018-12-09T04:22:05.306Z,98411.36
2018-12-09T04:22:39.977Z,98416.89
2018-12-09T04:23:14.690Z,98425.97
2018-12-09T04:23:49.313Z,98435.27
2018-12-09T04:24:23.901Z,98444.41
2018-12-09T04:24:58.774Z,98451.89
2018-12-09T04:25:33.388Z,98457.22
2018-12-09T04:26:08.019Z,98456.66
2018-12-09T04:26:42.932Z,98452.45
2018-12-09T04:27:17.591Z,98456.59
2018-12-09T04:27:52.263Z,98454.27
2018-12-09T04:28:26.831Z,98443.09
2018-12-09T04:29:01.556Z,98423.57
2018-12-09T04:29:36.322Z,98424.59
2018-12-09T04:30:11.022Z,98432.52
2018-12-09T04:30:47.328Z,98418.00
2018-12-09T04:31:21.970Z,98416.11
2018-12-09T04:31:56.946Z,98419.02
2018-12-09T04:32:31.603Z,98435.55
2018-12-09T04:33:06.445Z,98423.25
2018-12-09T04:33:41.062Z,98430.20
2018-12-09T04:34:16.330Z,98426.42
2018-12-09T04:34:50.981Z,98433.94
2018-12-09T04:35:25.883Z,98435.55
2018-12-09T04:36:00.500Z,98434.72
2018-12-09T04:36:35.259Z,98449.04
2018-12-09T04:37:09.970Z,98447.75
2018-12-09T04:37:45.015Z,98464.61
2018-12-09T04:38:19.581Z,98467.89
2018-12-09T04:38:54.160Z,98475.14
2018-12-09T04:39:28.750Z,98469.69
2018-12-09T04:40:04.277Z,98469.37
2018-12-09T04:40:39.281Z,98462.89
2018-12-09T04:41:13.933Z,98433.64
2018-12-09T04:41:48.850Z,98442.12
2018-12-09T04:42:23.521Z,98469.04
2018-12-09T04:42:58.197Z,98433.50
2018-12-09T04:43:33.364Z,98428.88
2018-12-09T04:44:08.133Z,98437.12
2018-12-09T04:44:42.975Z,98438.41
2018-12-09T04:45:18.062Z,98447.19
2018-12-09T04:45:52.730Z,98431.14
2018-12-09T04:46:28.017Z,98430.09
2018-12-09T04:47:02.632Z,98416.34
2018-12-09T04:47:37.329Z,98422.83
2018-12-09T04:48:12.286Z,98423.48
2018-12-09T04:48:46.900Z,98439.69
2018-12-09T04:49:21.640Z,98458.06
2018-12-09T04:49:56.248Z,98457.55
2018-12-09T04:50:30.863Z,98452.85
2018-12-09T04:51:05.729Z,98472.73
2018-12-09T04:51:53.393Z,98459.67
2018-12-09T04:52:28.107Z,98464.50
2018-12-09T04:53:02.860Z,98473.70
2018-12-09T04:53:37.738Z,98470.40
2018-12-09T04:54:12.349Z,98461.67
2018-12-09T04:54:46.960Z,98463.41
2018-12-09T04:55:22.029Z,98448.30
2018-12-09T04:55:57.203Z,98451.50
2018-12-09T04:56:32.497Z,98440.00
2018-12-09T04:57:07.182Z,98443.62
2018-12-09T04:57:42.008Z,98446.37
2018-12-09T04:58:16.905Z,98445.67
2018-12-09T04:59:02.169Z,98434.11
2018-12-09T04:59:41.623Z,98429.48
2018-12-09T05:00:27.610Z,98438.14
2018-12-09T05:01:02.224Z,98445.40
2018-12-09T05:01:37.154Z,98451.72
2018-12-09T05:02:11.752Z,98435.92
2018-12-09T05:02:46.382Z,98445.16
2018-12-09T05:03:21.300Z,98447.48
2018-12-09T05:03:56.360Z,98442.58
2018-12-09T05:04:31.001Z,98445.99
2018-12-09T05:05:06.243Z,98447.41
2018-12-09T05:05:40.840Z,98453.01
2018-12-09T05:06:15.578Z,98454.02
2018-12-09T05:06:50.524Z,98454.09
2018-12-09T05:07:25.295Z,98463.74
2018-12-09T05:08:00.121Z,98460.97
2018-12-09T05:08:34.741Z,98463.47
2018-12-09T05:09:09.546Z,98459.82
2018-12-09T05:09:44.185Z,98462.11
2018-12-09T05:10:19.143Z,98467.25
2018-12-09T05:10:53.781Z,98474.86
2018-12-09T05:11:28.413Z,98476.77
2018-12-09T05:12:03.038Z,98482.74
2018-12-09T05:12:37.625Z,98491.11
2018-12-09T05:13:12.234Z,98497.71
2018-12-09T05:13:46.931Z,98479.72
2018-12-09T05:14:22.222Z,98487.12
2018-12-09T05:14:56.873Z,98484.69
2018-12-09T05:15:32.118Z,98490.73
2018-12-09T05:16:06.804Z,98482.57
2018-12-09T05:16:42.218Z,98477.42
2018-12-09T05:17:16.836Z,98470.86
2018-12-09T05:17:51.486Z,98478.89
2018-12-09T05:18:26.426Z,98452.56
2018-12-09T05:19:01.244Z,98478.71
2018-12-09T05:19:35.894Z,98486.05
2018-12-09T05:20:10.935Z,98484.23
2018-12-09T05:20:45.757Z,98483.33
2018-12-09T05:21:20.351Z,98471.38
2018-12-09T05:21:55.055Z,98475.03
2018-12-09T05:22:29.983Z,98478.33
2018-12-09T05:23:04.772Z,98494.52
2018-12-09T05:23:39.560Z,98478.95
2018-12-09T05:24:14.190Z,98485.38
2018-12-09T05:24:48.765Z,98480.55
2018-12-09T05:25:23.359Z,98495.04
2018-12-09T05:25:58.359Z,98477.53
2018-12-09T05:26:33.173Z,98486.73
2018-12-09T05:27:08.028Z,98492.02
2018-12-09T05:27:42.621Z,98485.00
2018-12-09T05:28:17.244Z,98485.52
2018-12-09T05:28:51.873Z,98495.07
2018-12-09T05:29:26.679Z,98492.95
2018-12-09T05:30:01.325Z,98506.70
2018-12-09T05:30:36.020Z,98502.41
2018-12-09T05:31:11.191Z,98507.61
2018-12-09T05:31:45.825Z,98503.97
2018-12-09T05:32:20.923Z,98503.45
2018-12-09T05:32:55.706Z,98498.62
2018-12-09T05:33:30.464Z,98505.73
2018-12-09T05:34:05.089Z,98501.78
2018-12-09T05:34:39.784Z,98505.25
2018-12-09T05:35:14.454Z,98508.97
2018-12-09T05:35:49.075Z,98502.33
2018-12-09T05:36:23.685Z,98506.25
2018-12-09T05:36:58.468Z,98494.23
2018-12-09T05:37:33.572Z,98497.39
2018-12-09T05:38:08.222Z,98495.66
2018-12-09T05:38:43.086Z,98492.12
2018-12-09T05:39:17.701Z,98500.34
2018-12-09T05:39:52.344Z,98503.37
2018-12-09T05:40:27.787Z,98490.38
2018-12-09T05:41:02.927Z,98496.11
2018-12-09T05:41:37.582Z,98503.30
2018-12-09T05:42:12.176Z,98505.09
2018-12-09T05:42:46.799Z,98499.13
2018-12-09T05:43:21.448Z,98500.41
2018-12-09T05:43:56.241Z,98507.22
2018-12-09T05:44:30.917Z,98515.69
2018-12-09T05:45:06.582Z,98510.17
2018-12-09T05:45:41.212Z,98516.00
2018-12-09T05:46:15.833Z,98514.78
2018-12-09T05:46:50.455Z,98508.74
2018-12-09T05:47:25.201Z,98511.31
2018-12-09T05:48:00.402Z,98511.38
2018-12-09T05:48:35.041Z,98503.98
2018-12-09T05:49:10.047Z,98503.54
2018-12-09T05:49:44.630Z,98506.84
2018-12-09T05:50:19.961Z,98505.10
2018-12-09T05:50:54.958Z,98512.23
2018-12-09T05:51:29.523Z,98503.83
2018-12-09T05:52:04.637Z,98515.39
2018-12-09T05:52:39.225Z,98508.45
2018-12-09T05:53:13.830Z,98499.00
2018-12-09T05:53:48.415Z,98509.80
2018-12-09T05:54:23.015Z,98509.03
2018-12-09T05:54:58.166Z,98503.61
2018-12-09T05:55:32.965Z,98510.39
2018-12-09T05:56:07.570Z,98505.04
2018-12-09T05:56:42.158Z,98510.02
2018-12-09T05:57:16.750Z,98506.61
2018-12-09T05:57:51.436Z,98519.46
2018-12-09T05:58:28.226Z,98505.49
2018-12-09T05:59:03.097Z,98508.97
2018-12-09T05:59:37.710Z,98507.23
2018-12-09T06:00:12.349Z,98516.23
2018-12-09T06:00:46.964Z,98515.02
2018-12-09T06:01:21.646Z,98513.27
2018-12-09T06:02:06.671Z,98512.30
2018-12-09T06:02:56.117Z,98516.16
2018-12-09T06:03:30.886Z,98516.16
2018-12-09T06:04:05.571Z,98518.28
2018-12-09T06:04:40.391Z,98513.97
2018-12-09T06:05:15.008Z,98513.73
2018-12-09T06:05:49.714Z,98521.30
2018-12-09T06:06:24.727Z,98518.55
2018-12-09T06:06:59.599Z,98521.38
2018-12-09T06:07:34.376Z,98533.39
2018-12-09T06:08:09.579Z,98525.13
2018-12-09T06:08:44.247Z,98520.08
2018-12-09T06:09:19.438Z,98523.48
2018-12-09T06:09:54.215Z,98513.20
2018-12-09T06:10:29.253Z,98512.27
2018-12-09T06:11:04.293Z,98512.75
2018-12-09T06:11:38.960Z,98514.56
2018-12-09T06:12:13.564Z,98513.27
2018-12-09T06:12:48.177Z,98513.14
2018-12-09T06:13:22.790Z,98508.73
2018-12-09T06:13:57.729Z,98514.49
2018-12-09T06:14:32.698Z,98509.42
2018-12-09T06:15:08.266Z,98521.44
2018-12-09T06:15:43.077Z,98510.39
2018-12-09T06:16:17.795Z,98516.51
2018-12-09T06:16:53.291Z,98519.25
2018-12-09T06:17:28.237Z,98513.28
2018-12-09T06:18:03.395Z,98516.82
2018-12-09T06:18:38.300Z,98506.78
2018-12-09T06:19:12.996Z,98508.06
2018-12-09T06:19:47.605Z,98509.73
2018-12-09T06:20:22.197Z,98513.03
2018-12-09T06:20:57.030Z,98517.27
2018-12-09T06:21:31.709Z,98508.45
2018-12-09T06:22:06.348Z,98511.75
2018-12-09T06:22:40.926Z,98514.25
2018-12-09T06:23:15.593Z,98507.75
2018-12-09T06:23:50.249Z,98509.48
2018-12-09T06:24:25.047Z,98508.73
2018-12-09T06:25:01.082Z,98515.25
2018-12-09T06:25:35.776Z,98510.47
2018-12-09T06:26:10.374Z,98507.16
2018-12-09T06:26:44.995Z,98515.39
2018-12-09T06:27:20.087Z,98515.91
2018-12-09T06:27:54.744Z,98515.08
2018-12-09T06:28:29.666Z,98520.02
2018-12-09T06:29:04.870Z,98514.32
2018-12-09T06:29:39.591Z,98510.33
2018-12-09T06:30:14.206Z,98513.73
2018-12-09T06:30:48.861Z,98508.83
2018-12-09T06:31:23.499Z,98517.06
2018-12-09T06:31:58.623Z,98507.44
2018-12-09T06:32:33.336Z,98518.55
2018-12-09T06:33:07.966Z,98514.18
2018-12-09T06:33:42.584Z,98523.63
2018-12-09T06:34:17.224Z,98520.92
2018-12-09T06:34:51.800Z,98528.11
2018-12-09T06:35:26.763Z,98526.27
2018-12-09T06:36:01.488Z,98544.34
2018-12-09T06:36:36.156Z,98522.20
2018-12-09T06:37:10.750Z,98529.02
2018-12-09T06:37:45.691Z,98522.41
2018-12-09T06:38:20.289Z,98541.70
2018-12-09T06:38:54.951Z,98534.95
2018-12-09T06:39:29.903Z,98518.41
2018-12-09T06:40:06.273Z,98529.16
2018-12-09T06:40:41.481Z,98519.31
2018-12-09T06:41:16.094Z,98524.08
2018-12-09T06:41:51.152Z,98533.29
2018-12-09T06:42:25.917Z,98542.14
2018-12-09T06:43:00.935Z,98533.01
2018-12-09T06:43:35.623Z,98522.86
2018-12-09T06:44:10.241Z,98526.02
2018-12-09T06:44:44.868Z,98528.70
2018-12-09T06:45:19.567Z,98532.31
2018-12-09T06:45:54.184Z,98526.40
2018-12-09T06:46:29.318Z,98515.28
2018-12-09T06:47:04.152Z,98528.08
2018-12-09T06:47:39.067Z,98542.98
2018-12-09T06:48:13.777Z,98524.22
2018-12-09T06:48:48.401Z,98525.22
2018-12-09T06:49:23.008Z,98537.25
2018-12-09T06:49:58.211Z,98531.80
2018-12-09T06:50:32.966Z,98542.22
2018-12-09T06:51:07.585Z,98528.08
2018-12-09T06:51:42.254Z,98533.73